sensor_id;sensor_type;location;lat;lon;timestamp;temperature;humidity
15700;DHT22;7950;42.744;23.174;2023-07-31T00:01:32;20.10;99.90
15700;DHT22;7950;42.744;23.174;2023-07-31T00:04:01;20.10;99.90
15700;DHT22;7950;42.744;23.174;2023-07-31T00:06:30;20.10;99.90
15700;DHT22;7950;42.744;23.174;2023-07-31T00:08:58;20.00;99.90
15700;DHT22;7950;42.744;23.174;2023-07-31T00:11:27;20.00;99.90
15700;DHT22;7950;42.744;23.174;2023-07-31T00:13:57;19.90;99.90
15700;DHT22;7950;42.744;23.174;2023-07-31T00:16:26;19.80;99.90
15700;DHT22;7950;42.744;23.174;2023-07-31T00:18:54;19.80;99.90
15700;DHT22;7950;42.744;23.174;2023-07-31T00:21:23;19.80;99.90
15700;DHT22;7950;42.744;23.174;2023-07-31T00:23:51;19.70;99.90
15700;DHT22;7950;42.744;23.174;2023-07-31T00:26:20;19.70;99.90
15700;DHT22;7950;42.744;23.174;2023-07-31T00:28:48;19.70;99.90
15700;DHT22;7950;42.744;23.174;2023-07-31T00:31:18;19.70;99.90
15700;DHT22;7950;42.744;23.174;2023-07-31T00:33:47;19.70;99.90
15700;DHT22;7950;42.744;23.174;2023-07-31T00:36:16;19.60;99.90
15700;DHT22;7950;42.744;23.174;2023-07-31T00:38:44;19.60;99.90
15700;DHT22;7950;42.744;23.174;2023-07-31T00:41:13;19.50;99.90
15700;DHT22;7950;42.744;23.174;2023-07-31T00:43:42;19.50;99.90
15700;DHT22;7950;42.744;23.174;2023-07-31T00:46:10;19.50;99.90
15700;DHT22;7950;42.744;23.174;2023-07-31T00:48:41;19.50;99.90
15700;DHT22;7950;42.744;23.174;2023-07-31T00:51:10;19.50;99.90
15700;DHT22;7950;42.744;23.174;2023-07-31T00:53:40;19.50;99.90
15700;DHT22;7950;42.744;23.174;2023-07-31T00:56:11;19.50;99.90
15700;DHT22;7950;42.744;23.174;2023-07-31T00:58:40;19.50;99.90
15700;DHT22;7950;42.744;23.174;2023-07-31T01:01:09;19.50;99.90
15700;DHT22;7950;42.744;23.174;2023-07-31T01:03:37;19.50;99.90
15700;DHT22;7950;42.744;23.174;2023-07-31T01:06:14;19.50;99.90
15700;DHT22;7950;42.744;23.174;2023-07-31T01:08:54;19.40;99.90
15700;DHT22;7950;42.744;23.174;2023-07-31T01:11:31;19.40;99.90
15700;DHT22;7950;42.744;23.174;2023-07-31T01:14:03;19.40;99.90
15700;DHT22;7950;42.744;23.174;2023-07-31T01:16:31;19.40;99.90
15700;DHT22;7950;42.744;23.174;2023-07-31T01:19:00;19.40;99.90
15700;DHT22;7950;42.744;23.174;2023-07-31T01:21:58;19.40;99.90
15700;DHT22;7950;42.744;23.174;2023-07-31T01:24:55;19.40;99.90
15700;DHT22;7950;42.744;23.174;2023-07-31T01:27:30;19.40;99.90
15700;DHT22;7950;42.744;23.174;2023-07-31T01:30:08;19.40;99.90
15700;DHT22;7950;42.744;23.174;2023-07-31T01:32:42;19.40;99.90
15700;DHT22;7950;42.744;23.174;2023-07-31T01:35:12;19.40;99.90
15700;DHT22;7950;42.744;23.174;2023-07-31T01:37:41;19.40;99.90
15700;DHT22;7950;42.744;23.174;2023-07-31T01:40:10;19.50;99.90
15700;DHT22;7950;42.744;23.174;2023-07-31T01:42:40;19.50;99.90
15700;DHT22;7950;42.744;23.174;2023-07-31T01:45:09;19.50;99.90
15700;DHT22;7950;42.744;23.174;2023-07-31T01:47:38;19.50;99.90
15700;DHT22;7950;42.744;23.174;2023-07-31T01:50:07;19.60;99.90
15700;DHT22;7950;42.744;23.174;2023-07-31T01:52:37;19.60;99.90
15700;DHT22;7950;42.744;23.174;2023-07-31T01:55:05;19.70;99.90
15700;DHT22;7950;42.744;23.174;2023-07-31T01:57:36;19.80;99.90
15700;DHT22;7950;42.744;23.174;2023-07-31T02:00:07;19.80;99.90
15700;DHT22;7950;42.744;23.174;2023-07-31T02:02:36;19.80;99.90
15700;DHT22;7950;42.744;23.174;2023-07-31T02:05:06;19.90;99.90
15700;DHT22;7950;42.744;23.174;2023-07-31T02:07:35;19.90;99.90
15700;DHT22;7950;42.744;23.174;2023-07-31T02:10:04;19.90;99.90
15700;DHT22;7950;42.744;23.174;2023-07-31T02:12:33;19.90;99.90
15700;DHT22;7950;42.744;23.174;2023-07-31T02:15:01;19.90;99.90
15700;DHT22;7950;42.744;23.174;2023-07-31T02:17:32;19.90;99.90
15700;DHT22;7950;42.744;23.174;2023-07-31T02:20:00;19.90;99.90
15700;DHT22;7950;42.744;23.174;2023-07-31T02:22:29;19.90;99.90
15700;DHT22;7950;42.744;23.174;2023-07-31T02:24:58;19.80;99.90
15700;DHT22;7950;42.744;23.174;2023-07-31T02:27:26;19.90;99.90
15700;DHT22;7950;42.744;23.174;2023-07-31T02:29:55;19.90;99.90
15700;DHT22;7950;42.744;23.174;2023-07-31T02:32:26;20.00;99.90
15700;DHT22;7950;42.744;23.174;2023-07-31T02:34:56;20.00;99.90
15700;DHT22;7950;42.744;23.174;2023-07-31T02:37:25;20.20;99.90
15700;DHT22;7950;42.744;23.174;2023-07-31T02:39:55;20.10;99.90
15700;DHT22;7950;42.744;23.174;2023-07-31T02:42:24;20.20;99.90
15700;DHT22;7950;42.744;23.174;2023-07-31T02:44:52;20.10;99.90
15700;DHT22;7950;42.744;23.174;2023-07-31T02:47:23;20.10;99.90
15700;DHT22;7950;42.744;23.174;2023-07-31T02:49:51;20.00;99.90
15700;DHT22;7950;42.744;23.174;2023-07-31T02:52:21;19.90;99.90
15700;DHT22;7950;42.744;23.174;2023-07-31T02:54:50;19.90;99.90
15700;DHT22;7950;42.744;23.174;2023-07-31T02:57:18;19.90;99.90
15700;DHT22;7950;42.744;23.174;2023-07-31T02:59:47;19.80;99.90
15700;DHT22;7950;42.744;23.174;2023-07-31T03:02:15;19.80;99.90
15700;DHT22;7950;42.744;23.174;2023-07-31T03:04:44;19.80;99.90
15700;DHT22;7950;42.744;23.174;2023-07-31T03:07:12;19.90;99.90
15700;DHT22;7950;42.744;23.174;2023-07-31T03:09:42;19.90;99.90
15700;DHT22;7950;42.744;23.174;2023-07-31T03:12:11;19.90;99.90
15700;DHT22;7950;42.744;23.174;2023-07-31T03:14:39;19.90;99.90
15700;DHT22;7950;42.744;23.174;2023-07-31T03:17:08;19.90;99.90
15700;DHT22;7950;42.744;23.174;2023-07-31T03:19:37;19.90;99.90
15700;DHT22;7950;42.744;23.174;2023-07-31T03:22:05;20.00;99.90
15700;DHT22;7950;42.744;23.174;2023-07-31T03:24:34;20.00;99.90
15700;DHT22;7950;42.744;23.174;2023-07-31T03:27:05;20.00;99.90
15700;DHT22;7950;42.744;23.174;2023-07-31T03:29:34;20.00;99.90
15700;DHT22;7950;42.744;23.174;2023-07-31T03:32:02;20.00;99.90
15700;DHT22;7950;42.744;23.174;2023-07-31T03:34:31;20.00;99.90
15700;DHT22;7950;42.744;23.174;2023-07-31T03:37:00;20.00;99.90
15700;DHT22;7950;42.744;23.174;2023-07-31T03:39:28;19.90;99.90
15700;DHT22;7950;42.744;23.174;2023-07-31T03:41:57;19.90;99.90
15700;DHT22;7950;42.744;23.174;2023-07-31T03:44:27;20.00;99.90
15700;DHT22;7950;42.744;23.174;2023-07-31T03:46:55;20.00;99.90
15700;DHT22;7950;42.744;23.174;2023-07-31T03:49:24;19.90;99.90
15700;DHT22;7950;42.744;23.174;2023-07-31T03:51:54;20.00;99.90
15700;DHT22;7950;42.744;23.174;2023-07-31T03:54:22;20.00;99.90
15700;DHT22;7950;42.744;23.174;2023-07-31T03:56:51;20.00;99.90
15700;DHT22;7950;42.744;23.174;2023-07-31T03:59:19;20.00;99.90
15700;DHT22;7950;42.744;23.174;2023-07-31T04:01:49;20.10;99.90
15700;DHT22;7950;42.744;23.174;2023-07-31T04:04:18;20.10;99.90
15700;DHT22;7950;42.744;23.174;2023-07-31T04:06:46;20.10;99.90
15700;DHT22;7950;42.744;23.174;2023-07-31T04:09:15;20.10;99.90
15700;DHT22;7950;42.744;23.174;2023-07-31T04:11:43;20.20;99.90
15700;DHT22;7950;42.744;23.174;2023-07-31T04:14:12;20.20;99.90
15700;DHT22;7950;42.744;23.174;2023-07-31T04:16:40;20.30;99.90
15700;DHT22;7950;42.744;23.174;2023-07-31T04:19:10;20.40;99.90
15700;DHT22;7950;42.744;23.174;2023-07-31T04:21:43;20.50;99.90
15700;DHT22;7950;42.744;23.174;2023-07-31T04:24:12;20.50;99.90
15700;DHT22;7950;42.744;23.174;2023-07-31T04:26:40;20.60;99.90
15700;DHT22;7950;42.744;23.174;2023-07-31T04:29:09;20.70;99.90
15700;DHT22;7950;42.744;23.174;2023-07-31T04:31:37;20.70;99.90
15700;DHT22;7950;42.744;23.174;2023-07-31T04:34:06;20.80;99.90
15700;DHT22;7950;42.744;23.174;2023-07-31T04:36:36;20.90;99.90
15700;DHT22;7950;42.744;23.174;2023-07-31T04:39:05;20.80;99.90
15700;DHT22;7950;42.744;23.174;2023-07-31T04:41:34;20.80;99.90
15700;DHT22;7950;42.744;23.174;2023-07-31T04:44:02;20.80;99.90
15700;DHT22;7950;42.744;23.174;2023-07-31T04:46:31;20.80;99.90
15700;DHT22;7950;42.744;23.174;2023-07-31T04:49:00;20.90;99.90
15700;DHT22;7950;42.744;23.174;2023-07-31T04:51:29;21.00;99.90
15700;DHT22;7950;42.744;23.174;2023-07-31T04:53:59;21.10;99.90
15700;DHT22;7950;42.744;23.174;2023-07-31T04:56:28;21.20;99.90
15700;DHT22;7950;42.744;23.174;2023-07-31T04:58:56;21.30;99.90
15700;DHT22;7950;42.744;23.174;2023-07-31T05:01:25;21.40;99.90
15700;DHT22;7950;42.744;23.174;2023-07-31T05:03:54;21.40;99.90
15700;DHT22;7950;42.744;23.174;2023-07-31T05:06:22;21.40;99.90
15700;DHT22;7950;42.744;23.174;2023-07-31T05:08:51;21.50;99.90
15700;DHT22;7950;42.744;23.174;2023-07-31T05:11:21;21.50;99.90
15700;DHT22;7950;42.744;23.174;2023-07-31T05:13:49;21.60;99.90
15700;DHT22;7950;42.744;23.174;2023-07-31T05:16:18;21.50;99.90
15700;DHT22;7950;42.744;23.174;2023-07-31T05:18:46;21.60;99.90
15700;DHT22;7950;42.744;23.174;2023-07-31T05:21:15;21.70;99.90
15700;DHT22;7950;42.744;23.174;2023-07-31T05:23:44;21.70;99.90
15700;DHT22;7950;42.744;23.174;2023-07-31T05:26:12;21.80;99.90
15700;DHT22;7950;42.744;23.174;2023-07-31T05:28:45;21.90;99.90
15700;DHT22;7950;42.744;23.174;2023-07-31T05:31:13;22.00;99.90
15700;DHT22;7950;42.744;23.174;2023-07-31T05:33:42;22.00;99.90
15700;DHT22;7950;42.744;23.174;2023-07-31T05:36:10;22.10;99.90
15700;DHT22;7950;42.744;23.174;2023-07-31T05:38:39;22.10;99.90
15700;DHT22;7950;42.744;23.174;2023-07-31T05:41:09;22.20;99.90
15700;DHT22;7950;42.744;23.174;2023-07-31T05:43:38;22.30;99.90
15700;DHT22;7950;42.744;23.174;2023-07-31T05:46:08;22.30;99.90
15700;DHT22;7950;42.744;23.174;2023-07-31T05:48:37;22.40;99.90
15700;DHT22;7950;42.744;23.174;2023-07-31T05:51:05;22.40;99.90
15700;DHT22;7950;42.744;23.174;2023-07-31T05:53:34;22.50;99.90
15700;DHT22;7950;42.744;23.174;2023-07-31T05:56:06;22.60;99.90
15700;DHT22;7950;42.744;23.174;2023-07-31T05:58:34;22.70;99.90
15700;DHT22;7950;42.744;23.174;2023-07-31T06:01:03;22.80;99.90
15700;DHT22;7950;42.744;23.174;2023-07-31T06:03:33;22.80;99.90
15700;DHT22;7950;42.744;23.174;2023-07-31T06:06:02;22.60;99.90
15700;DHT22;7950;42.744;23.174;2023-07-31T06:08:30;22.50;99.90
15700;DHT22;7950;42.744;23.174;2023-07-31T06:10:59;22.40;99.90
15700;DHT22;7950;42.744;23.174;2023-07-31T06:13:28;22.50;99.90
15700;DHT22;7950;42.744;23.174;2023-07-31T06:15:56;22.40;99.90
15700;DHT22;7950;42.744;23.174;2023-07-31T06:18:26;22.30;99.90
15700;DHT22;7950;42.744;23.174;2023-07-31T06:20:56;22.30;99.90
15700;DHT22;7950;42.744;23.174;2023-07-31T06:23:24;22.30;99.90
15700;DHT22;7950;42.744;23.174;2023-07-31T06:25:53;22.30;99.90
15700;DHT22;7950;42.744;23.174;2023-07-31T06:28:23;22.20;99.90
15700;DHT22;7950;42.744;23.174;2023-07-31T06:30:56;22.10;99.90
15700;DHT22;7950;42.744;23.174;2023-07-31T06:33:24;22.30;99.90
15700;DHT22;7950;42.744;23.174;2023-07-31T06:35:53;22.60;99.90
15700;DHT22;7950;42.744;23.174;2023-07-31T06:38:25;22.80;99.90
15700;DHT22;7950;42.744;23.174;2023-07-31T06:40:54;22.80;99.90
15700;DHT22;7950;42.744;23.174;2023-07-31T06:43:23;22.80;99.90
15700;DHT22;7950;42.744;23.174;2023-07-31T06:45:55;22.90;99.90
15700;DHT22;7950;42.744;23.174;2023-07-31T06:48:23;22.80;99.90
15700;DHT22;7950;42.744;23.174;2023-07-31T06:50:52;22.70;99.90
15700;DHT22;7950;42.744;23.174;2023-07-31T06:53:20;22.70;99.90
15700;DHT22;7950;42.744;23.174;2023-07-31T06:55:50;22.70;99.90
15700;DHT22;7950;42.744;23.174;2023-07-31T06:58:19;22.60;99.90
15700;DHT22;7950;42.744;23.174;2023-07-31T07:00:48;22.60;99.90
15700;DHT22;7950;42.744;23.174;2023-07-31T07:03:18;22.60;99.90
15700;DHT22;7950;42.744;23.174;2023-07-31T07:05:47;22.80;99.90
15700;DHT22;7950;42.744;23.174;2023-07-31T07:08:16;22.90;99.90
15700;DHT22;7950;42.744;23.174;2023-07-31T07:10:46;23.10;99.90
15700;DHT22;7950;42.744;23.174;2023-07-31T07:13:15;23.30;99.90
15700;DHT22;7950;42.744;23.174;2023-07-31T07:15:48;23.50;99.90
15700;DHT22;7950;42.744;23.174;2023-07-31T07:18:17;23.60;99.90
15700;DHT22;7950;42.744;23.174;2023-07-31T07:20:49;23.70;99.90
15700;DHT22;7950;42.744;23.174;2023-07-31T07:23:18;23.80;99.90
15700;DHT22;7950;42.744;23.174;2023-07-31T07:25:48;23.80;99.90
15700;DHT22;7950;42.744;23.174;2023-07-31T07:28:18;23.80;99.90
15700;DHT22;7950;42.744;23.174;2023-07-31T07:30:51;23.80;99.90
15700;DHT22;7950;42.744;23.174;2023-07-31T07:33:20;23.80;99.90
15700;DHT22;7950;42.744;23.174;2023-07-31T07:35:49;23.80;99.90
15700;DHT22;7950;42.744;23.174;2023-07-31T07:38:17;23.90;99.90
15700;DHT22;7950;42.744;23.174;2023-07-31T07:40:51;24.00;99.90
15700;DHT22;7950;42.744;23.174;2023-07-31T07:43:20;24.20;99.90
15700;DHT22;7950;42.744;23.174;2023-07-31T07:45:49;24.40;99.90
15700;DHT22;7950;42.744;23.174;2023-07-31T07:48:18;24.60;99.90
15700;DHT22;7950;42.744;23.174;2023-07-31T07:50:46;24.70;99.90
15700;DHT22;7950;42.744;23.174;2023-07-31T07:53:16;24.90;99.90
15700;DHT22;7950;42.744;23.174;2023-07-31T07:55:45;25.10;99.90
15700;DHT22;7950;42.744;23.174;2023-07-31T07:58:15;25.10;99.90
15700;DHT22;7950;42.744;23.174;2023-07-31T08:00:48;25.20;99.90
15700;DHT22;7950;42.744;23.174;2023-07-31T08:03:18;25.20;99.90
15700;DHT22;7950;42.744;23.174;2023-07-31T08:05:47;25.20;99.90
15700;DHT22;7950;42.744;23.174;2023-07-31T08:08:16;25.10;99.90
15700;DHT22;7950;42.744;23.174;2023-07-31T08:10:45;25.10;99.50
15700;DHT22;7950;42.744;23.174;2023-07-31T08:13:14;25.20;99.90
15700;DHT22;7950;42.744;23.174;2023-07-31T08:15:43;25.40;99.20
15700;DHT22;7950;42.744;23.174;2023-07-31T08:18:12;25.40;98.00
15700;DHT22;7950;42.744;23.174;2023-07-31T08:20:40;25.50;96.90
15700;DHT22;7950;42.744;23.174;2023-07-31T08:23:09;25.50;98.10
15700;DHT22;7950;42.744;23.174;2023-07-31T08:25:38;25.60;97.90
15700;DHT22;7950;42.744;23.174;2023-07-31T08:28:07;25.70;96.70
15700;DHT22;7950;42.744;23.174;2023-07-31T08:30:37;25.70;96.90
15700;DHT22;7950;42.744;23.174;2023-07-31T08:33:05;25.70;96.80
15700;DHT22;7950;42.744;23.174;2023-07-31T08:35:34;25.90;95.10
15700;DHT22;7950;42.744;23.174;2023-07-31T08:38:02;26.00;94.80
15700;DHT22;7950;42.744;23.174;2023-07-31T08:40:31;26.10;95.50
15700;DHT22;7950;42.744;23.174;2023-07-31T08:43:00;26.30;94.80
15700;DHT22;7950;42.744;23.174;2023-07-31T08:45:30;26.40;93.80
15700;DHT22;7950;42.744;23.174;2023-07-31T08:48:00;26.70;93.10
15700;DHT22;7950;42.744;23.174;2023-07-31T08:50:30;26.80;91.10
15700;DHT22;7950;42.744;23.174;2023-07-31T08:52:58;26.80;91.60
15700;DHT22;7950;42.744;23.174;2023-07-31T08:55:27;26.80;90.10
15700;DHT22;7950;42.744;23.174;2023-07-31T08:57:57;26.80;90.90
15700;DHT22;7950;42.744;23.174;2023-07-31T09:00:27;27.00;91.50
15700;DHT22;7950;42.744;23.174;2023-07-31T09:03:03;27.20;90.20
15700;DHT22;7950;42.744;23.174;2023-07-31T09:05:36;27.50;88.70
15700;DHT22;7950;42.744;23.174;2023-07-31T09:08:09;27.60;82.60
15700;DHT22;7950;42.744;23.174;2023-07-31T09:10:41;27.50;84.90
15700;DHT22;7950;42.744;23.174;2023-07-31T09:13:10;27.60;82.50
15700;DHT22;7950;42.744;23.174;2023-07-31T09:15:39;27.50;82.70
15700;DHT22;7950;42.744;23.174;2023-07-31T09:18:10;27.50;82.20
15700;DHT22;7950;42.744;23.174;2023-07-31T09:20:39;27.60;79.20
15700;DHT22;7950;42.744;23.174;2023-07-31T09:23:09;27.60;79.10
15700;DHT22;7950;42.744;23.174;2023-07-31T09:25:39;27.60;79.80
15700;DHT22;7950;42.744;23.174;2023-07-31T09:28:11;27.40;78.70
15700;DHT22;7950;42.744;23.174;2023-07-31T09:30:45;27.40;82.00
15700;DHT22;7950;42.744;23.174;2023-07-31T09:33:18;27.40;80.80
15700;DHT22;7950;42.744;23.174;2023-07-31T09:35:47;27.50;81.90
15700;DHT22;7950;42.744;23.174;2023-07-31T09:38:16;27.40;77.30
15700;DHT22;7950;42.744;23.174;2023-07-31T09:40:46;27.50;78.80
15700;DHT22;7950;42.744;23.174;2023-07-31T09:43:18;27.70;78.40
15700;DHT22;7950;42.744;23.174;2023-07-31T09:45:48;28.10;79.40
15700;DHT22;7950;42.744;23.174;2023-07-31T09:48:24;28.20;75.60
15700;DHT22;7950;42.744;23.174;2023-07-31T09:50:54;28.40;73.10
15700;DHT22;7950;42.744;23.174;2023-07-31T09:53:28;28.40;73.30
15700;DHT22;7950;42.744;23.174;2023-07-31T09:55:58;28.30;72.10
15700;DHT22;7950;42.744;23.174;2023-07-31T09:58:29;28.30;71.30
15700;DHT22;7950;42.744;23.174;2023-07-31T10:00:58;28.30;72.20
15700;DHT22;7950;42.744;23.174;2023-07-31T10:03:29;28.40;72.20
15700;DHT22;7950;42.744;23.174;2023-07-31T10:06:00;28.40;70.90
15700;DHT22;7950;42.744;23.174;2023-07-31T10:08:32;28.30;71.60
15700;DHT22;7950;42.744;23.174;2023-07-31T10:11:04;28.30;69.90
15700;DHT22;7950;42.744;23.174;2023-07-31T10:13:35;28.20;69.30
15700;DHT22;7950;42.744;23.174;2023-07-31T10:16:05;28.30;71.30
15700;DHT22;7950;42.744;23.174;2023-07-31T10:18:36;28.40;69.20
15700;DHT22;7950;42.744;23.174;2023-07-31T10:21:06;28.40;70.00
15700;DHT22;7950;42.744;23.174;2023-07-31T10:23:36;28.50;69.50
15700;DHT22;7950;42.744;23.174;2023-07-31T10:26:07;28.50;68.50
15700;DHT22;7950;42.744;23.174;2023-07-31T10:28:37;28.60;67.70
15700;DHT22;7950;42.744;23.174;2023-07-31T10:31:07;28.80;67.90
15700;DHT22;7950;42.744;23.174;2023-07-31T10:33:38;28.90;65.60
15700;DHT22;7950;42.744;23.174;2023-07-31T10:36:12;28.80;64.50
15700;DHT22;7950;42.744;23.174;2023-07-31T10:38:42;28.80;64.20
15700;DHT22;7950;42.744;23.174;2023-07-31T10:41:11;28.80;63.00
15700;DHT22;7950;42.744;23.174;2023-07-31T10:43:40;28.80;62.10
15700;DHT22;7950;42.744;23.174;2023-07-31T10:46:09;28.90;62.50
15700;DHT22;7950;42.744;23.174;2023-07-31T10:48:41;28.80;61.70
15700;DHT22;7950;42.744;23.174;2023-07-31T10:51:11;28.80;61.80
15700;DHT22;7950;42.744;23.174;2023-07-31T10:53:41;28.90;60.70
15700;DHT22;7950;42.744;23.174;2023-07-31T10:56:10;29.00;60.80
15700;DHT22;7950;42.744;23.174;2023-07-31T10:58:44;29.10;63.10
15700;DHT22;7950;42.744;23.174;2023-07-31T11:01:14;29.20;61.20
15700;DHT22;7950;42.744;23.174;2023-07-31T11:03:45;29.30;61.80
15700;DHT22;7950;42.744;23.174;2023-07-31T11:06:16;29.50;60.90
15700;DHT22;7950;42.744;23.174;2023-07-31T11:08:46;29.60;59.70
15700;DHT22;7950;42.744;23.174;2023-07-31T11:11:17;29.70;60.70
15700;DHT22;7950;42.744;23.174;2023-07-31T11:13:49;29.70;59.90
15700;DHT22;7950;42.744;23.174;2023-07-31T11:16:21;29.60;61.90
15700;DHT22;7950;42.744;23.174;2023-07-31T11:18:53;29.30;62.50
15700;DHT22;7950;42.744;23.174;2023-07-31T11:21:24;29.10;62.40
15700;DHT22;7950;42.744;23.174;2023-07-31T11:23:56;29.10;62.10
15700;DHT22;7950;42.744;23.174;2023-07-31T11:26:25;28.90;60.60
15700;DHT22;7950;42.744;23.174;2023-07-31T11:28:55;28.70;61.70
15700;DHT22;7950;42.744;23.174;2023-07-31T11:31:24;28.70;61.40
15700;DHT22;7950;42.744;23.174;2023-07-31T11:34:05;28.70;61.90
15700;DHT22;7950;42.744;23.174;2023-07-31T11:36:34;28.60;63.00
15700;DHT22;7950;42.744;23.174;2023-07-31T11:39:07;28.70;63.40
15700;DHT22;7950;42.744;23.174;2023-07-31T11:41:37;28.60;64.10
15700;DHT22;7950;42.744;23.174;2023-07-31T11:44:09;28.70;66.00
15700;DHT22;7950;42.744;23.174;2023-07-31T11:46:52;28.80;65.20
15700;DHT22;7950;42.744;23.174;2023-07-31T11:49:22;29.00;65.30
15700;DHT22;7950;42.744;23.174;2023-07-31T11:51:51;29.10;63.90
15700;DHT22;7950;42.744;23.174;2023-07-31T11:54:20;29.20;65.10
15700;DHT22;7950;42.744;23.174;2023-07-31T11:56:48;29.10;66.10
15700;DHT22;7950;42.744;23.174;2023-07-31T11:59:17;29.00;67.00
15700;DHT22;7950;42.744;23.174;2023-07-31T12:01:46;29.10;64.80
15700;DHT22;7950;42.744;23.174;2023-07-31T12:04:17;29.20;64.10
15700;DHT22;7950;42.744;23.174;2023-07-31T12:06:48;29.20;62.60
15700;DHT22;7950;42.744;23.174;2023-07-31T12:09:17;29.20;61.70
15700;DHT22;7950;42.744;23.174;2023-07-31T12:11:46;29.20;61.00
15700;DHT22;7950;42.744;23.174;2023-07-31T12:14:26;29.30;61.40
15700;DHT22;7950;42.744;23.174;2023-07-31T12:16:58;29.40;59.70
15700;DHT22;7950;42.744;23.174;2023-07-31T12:19:29;29.30;60.00
15700;DHT22;7950;42.744;23.174;2023-07-31T12:22:00;29.30;60.00
15700;DHT22;7950;42.744;23.174;2023-07-31T12:24:28;29.30;59.90
15700;DHT22;7950;42.744;23.174;2023-07-31T12:26:57;29.40;59.40
15700;DHT22;7950;42.744;23.174;2023-07-31T12:29:33;29.30;60.00
15700;DHT22;7950;42.744;23.174;2023-07-31T12:32:19;29.40;60.70
15700;DHT22;7950;42.744;23.174;2023-07-31T12:34:48;29.20;58.20
15700;DHT22;7950;42.744;23.174;2023-07-31T12:37:18;29.10;58.60
15700;DHT22;7950;42.744;23.174;2023-07-31T12:39:48;28.80;59.20
15700;DHT22;7950;42.744;23.174;2023-07-31T12:42:17;28.60;61.00
15700;DHT22;7950;42.744;23.174;2023-07-31T12:44:46;28.30;62.40
15700;DHT22;7950;42.744;23.174;2023-07-31T12:47:14;28.20;63.30
15700;DHT22;7950;42.744;23.174;2023-07-31T12:49:43;28.10;63.40
15700;DHT22;7950;42.744;23.174;2023-07-31T12:52:11;28.40;62.20
15700;DHT22;7950;42.744;23.174;2023-07-31T12:54:41;28.60;61.80
15700;DHT22;7950;42.744;23.174;2023-07-31T12:57:10;28.70;61.80
15700;DHT22;7950;42.744;23.174;2023-07-31T12:59:38;28.60;60.50
15700;DHT22;7950;42.744;23.174;2023-07-31T13:02:07;28.50;59.90
15700;DHT22;7950;42.744;23.174;2023-07-31T13:04:35;28.40;59.60
15700;DHT22;7950;42.744;23.174;2023-07-31T13:07:04;28.20;59.50
15700;DHT22;7950;42.744;23.174;2023-07-31T13:09:33;28.00;59.70
15700;DHT22;7950;42.744;23.174;2023-07-31T13:12:03;27.80;60.10
15700;DHT22;7950;42.744;23.174;2023-07-31T13:14:32;27.60;60.60
15700;DHT22;7950;42.744;23.174;2023-07-31T13:17:01;27.50;61.60
15700;DHT22;7950;42.744;23.174;2023-07-31T13:19:30;27.40;62.90
15700;DHT22;7950;42.744;23.174;2023-07-31T13:21:58;27.50;63.70
15700;DHT22;7950;42.744;23.174;2023-07-31T13:24:27;27.80;65.10
15700;DHT22;7950;42.744;23.174;2023-07-31T13:26:56;28.00;63.20
15700;DHT22;7950;42.744;23.174;2023-07-31T13:29:26;28.30;62.20
15700;DHT22;7950;42.744;23.174;2023-07-31T13:31:54;28.50;59.90
15700;DHT22;7950;42.744;23.174;2023-07-31T13:34:23;28.30;59.40
15700;DHT22;7950;42.744;23.174;2023-07-31T13:36:54;28.20;61.00
15700;DHT22;7950;42.744;23.174;2023-07-31T13:39:23;28.10;62.60
15700;DHT22;7950;42.744;23.174;2023-07-31T13:41:51;28.00;62.90
15700;DHT22;7950;42.744;23.174;2023-07-31T13:44:20;28.10;61.90
15700;DHT22;7950;42.744;23.174;2023-07-31T13:46:50;28.30;62.10
15700;DHT22;7950;42.744;23.174;2023-07-31T13:49:19;28.60;63.00
15700;DHT22;7950;42.744;23.174;2023-07-31T13:51:47;28.70;61.90
15700;DHT22;7950;42.744;23.174;2023-07-31T13:54:16;28.70;61.60
15700;DHT22;7950;42.744;23.174;2023-07-31T13:56:45;28.60;60.30
15700;DHT22;7950;42.744;23.174;2023-07-31T13:59:14;28.60;60.10
15700;DHT22;7950;42.744;23.174;2023-07-31T14:01:43;28.70;60.30
15700;DHT22;7950;42.744;23.174;2023-07-31T14:04:14;28.70;58.90
15700;DHT22;7950;42.744;23.174;2023-07-31T14:06:42;28.80;59.70
15700;DHT22;7950;42.744;23.174;2023-07-31T14:09:11;29.00;61.40
15700;DHT22;7950;42.744;23.174;2023-07-31T14:11:41;29.10;60.40
15700;DHT22;7950;42.744;23.174;2023-07-31T14:14:09;29.10;60.20
15700;DHT22;7950;42.744;23.174;2023-07-31T14:16:39;29.10;61.20
15700;DHT22;7950;42.744;23.174;2023-07-31T14:19:08;29.10;61.50
15700;DHT22;7950;42.744;23.174;2023-07-31T14:21:38;29.00;62.20
15700;DHT22;7950;42.744;23.174;2023-07-31T14:24:07;29.00;60.00
15700;DHT22;7950;42.744;23.174;2023-07-31T14:26:35;28.80;59.90
15700;DHT22;7950;42.744;23.174;2023-07-31T14:29:04;28.80;60.60
15700;DHT22;7950;42.744;23.174;2023-07-31T14:31:33;28.50;61.70
15700;DHT22;7950;42.744;23.174;2023-07-31T14:34:01;28.40;63.40
15700;DHT22;7950;42.744;23.174;2023-07-31T14:36:30;28.40;63.00
15700;DHT22;7950;42.744;23.174;2023-07-31T14:39:00;28.40;62.80
15700;DHT22;7950;42.744;23.174;2023-07-31T14:41:28;28.40;63.30
15700;DHT22;7950;42.744;23.174;2023-07-31T14:43:57;28.40;64.20
15700;DHT22;7950;42.744;23.174;2023-07-31T14:46:25;28.50;63.80
15700;DHT22;7950;42.744;23.174;2023-07-31T14:48:54;28.60;64.60
15700;DHT22;7950;42.744;23.174;2023-07-31T14:51:22;28.60;64.90
15700;DHT22;7950;42.744;23.174;2023-07-31T14:53:51;28.60;65.00
15700;DHT22;7950;42.744;23.174;2023-07-31T14:56:21;28.60;64.70
15700;DHT22;7950;42.744;23.174;2023-07-31T14:58:49;28.50;65.00
15700;DHT22;7950;42.744;23.174;2023-07-31T15:01:18;28.50;64.60
15700;DHT22;7950;42.744;23.174;2023-07-31T15:03:46;28.40;65.70
15700;DHT22;7950;42.744;23.174;2023-07-31T15:06:15;28.30;66.60
15700;DHT22;7950;42.744;23.174;2023-07-31T15:08:44;28.20;66.60
15700;DHT22;7950;42.744;23.174;2023-07-31T15:11:12;28.10;66.90
15700;DHT22;7950;42.744;23.174;2023-07-31T15:13:44;28.00;66.80
15700;DHT22;7950;42.744;23.174;2023-07-31T15:16:13;28.00;66.10
15700;DHT22;7950;42.744;23.174;2023-07-31T15:18:41;27.70;66.40
15700;DHT22;7950;42.744;23.174;2023-07-31T15:21:10;27.60;67.50
15700;DHT22;7950;42.744;23.174;2023-07-31T15:23:38;27.50;67.60
15700;DHT22;7950;42.744;23.174;2023-07-31T15:26:07;27.50;67.50
15700;DHT22;7950;42.744;23.174;2023-07-31T15:28:36;27.50;67.60
15700;DHT22;7950;42.744;23.174;2023-07-31T15:31:07;27.50;68.20
15700;DHT22;7950;42.744;23.174;2023-07-31T15:33:36;27.40;67.50
15700;DHT22;7950;42.744;23.174;2023-07-31T15:36:05;27.20;68.40
15700;DHT22;7950;42.744;23.174;2023-07-31T15:38:34;27.00;69.70
15700;DHT22;7950;42.744;23.174;2023-07-31T15:41:02;26.70;70.30
15700;DHT22;7950;42.744;23.174;2023-07-31T15:43:31;26.50;70.70
15700;DHT22;7950;42.744;23.174;2023-07-31T15:46:00;26.40;71.70